Time;durP1;ratioP1;P1;durP2;ratioP2;P2;SDS_P1;SDS_P2;PMS_P1;PMS_P2;Temp;Humidity;BMP_temperature;BMP_pressure;BME280_temperature;BME280_humidity;BME280_pressure;Samples;Min_cycle;Max_cycle;Signal;HPM_P1;HPM_P2
2023/02/13 00:01:55;;;;;;;8.13;7.03;;;20.70;59.60;;;;;;4959963;28;87754;-86
2023/02/13 00:04:21;;;;;;;7.70;6.85;;;20.70;59.50;;;;;;4959031;28;87197;-86
2023/02/13 00:06:46;;;;;;;8.48;7.15;;;20.70;59.60;;;;;;4957859;28;87424;-86
2023/02/13 00:15:58;;;;;;;7.47;6.72;;;20.60;59.60;;;;;;4957772;28;87360;-85
2023/02/13 00:18:24;;;;;;;7.35;6.63;;;20.60;59.50;;;;;;4957822;28;87558;-85
2023/02/13 00:21:07;;;;;;;7.45;6.38;;;20.60;59.30;;;;;;4957754;28;88550;-85
2023/02/13 00:23:34;;;;;;;7.30;6.55;;;20.60;59.50;;;;;;4939574;28;91555;-85
2023/02/13 00:26:03;;;;;;;8.07;6.80;;;20.50;60.10;;;;;;4959516;28;87223;-85
2023/02/13 00:28:29;;;;;;;7.63;6.78;;;20.50;59.50;;;;;;4958096;28;87617;-85
2023/02/13 00:31:02;;;;;;;7.10;6.40;;;20.50;59.40;;;;;;4936767;28;92696;-86
2023/02/13 00:33:28;;;;;;;7.82;6.85;;;20.50;59.40;;;;;;4944344;28;90522;-85
2023/02/13 00:36:09;;;;;;;8.23;7.40;;;20.50;59.40;;;;;;4957950;28;88482;-85
2023/02/13 00:38:35;;;;;;;7.68;6.72;;;20.50;59.40;;;;;;4946636;28;87270;-86
2023/02/13 00:41:02;;;;;;;6.55;5.93;;;20.50;59.90;;;;;;4947159;28;88223;-85
2023/02/13 00:50:11;;;;;;;7.78;6.97;;;20.40;59.20;;;;;;4956972;28;90400;-85
2023/02/13 00:52:36;;;;;;;8.00;7.00;;;20.40;59.20;;;;;;4957729;28;88185;-85
2023/02/13 00:55:02;;;;;;;7.25;6.55;;;20.40;59.30;;;;;;4958374;28;86525;-85
2023/02/13 00:57:30;;;;;;;8.07;7.28;;;20.40;59.30;;;;;;4957664;28;87453;-86
2023/02/13 01:03:23;;;;;;;8.10;7.13;;;20.30;59.10;;;;;;4957147;28;88847;-85
2023/02/13 01:05:49;;;;;;;7.72;6.95;;;20.30;59.10;;;;;;4939270;28;91739;-85
2023/02/13 01:08:17;;;;;;;7.10;6.38;;;20.30;59.10;;;;;;4957194;28;87697;-85
2023/02/13 01:10:44;;;;;;;8.23;7.35;;;20.30;59.10;;;;;;4957452;28;87408;-85
2023/02/13 01:13:14;;;;;;;7.18;6.47;;;20.30;59.10;;;;;;4956619;28;88421;-85
2023/02/13 01:15:40;;;;;;;7.40;6.70;;;20.20;59.20;;;;;;4954112;28;88475;-85
2023/02/13 01:18:05;;;;;;;6.97;6.28;;;20.20;59.20;;;;;;4936501;28;87448;-85
2023/02/13 01:20:31;;;;;;;7.40;6.68;;;20.20;59.10;;;;;;4936747;28;89485;-85
2023/02/13 01:22:57;;;;;;;8.18;6.75;;;20.20;59.20;;;;;;4954972;28;88287;-85
2023/02/13 01:25:22;;;;;;;7.25;6.53;;;20.20;59.20;;;;;;4937736;28;90767;-85
2023/02/13 01:27:49;;;;;;;6.95;6.25;;;20.20;59.10;;;;;;4939216;28;88057;-86
2023/02/13 01:32:49;;;;;;;6.72;6.10;;;20.20;59.20;;;;;;4956752;28;88044;-85
2023/02/13 01:38:45;;;;;;;8.10;6.78;;;20.20;58.90;;;;;;4957273;28;86870;-85
2023/02/13 01:41:11;;;;;;;6.97;6.07;;;20.20;59.00;;;;;;4957915;28;87566;-85
2023/02/13 01:43:47;;;;;;;7.50;6.30;;;20.10;59.00;;;;;;4944661;28;89266;-85
2023/02/13 01:46:18;;;;;;;7.03;6.30;;;20.10;59.00;;;;;;4956364;28;87878;-85
2023/02/13 01:48:45;;;;;;;8.07;6.65;;;20.10;58.90;;;;;;4947559;28;87721;-85
2023/02/13 01:51:20;;;;;;;6.85;6.15;;;20.10;58.90;;;;;;4957768;28;88435;-85
2023/02/13 01:53:57;;;;;;;6.63;6.03;;;20.10;58.80;;;;;;4938341;28;92674;-85
2023/02/13 01:56:26;;;;;;;6.45;5.85;;;20.10;58.90;;;;;;4957620;28;88890;-85
2023/02/13 01:58:55;;;;;;;7.35;6.65;;;20.10;58.80;;;;;;4957080;28;87308;-86
2023/02/13 02:01:21;;;;;;;6.65;6.05;;;20.00;58.80;;;;;;4956811;28;87734;-85
2023/02/13 02:04:00;;;;;;;7.10;6.35;;;20.10;59.10;;;;;;4957154;28;87374;-85
2023/02/13 02:06:31;;;;;;;6.30;5.68;;;20.00;59.00;;;;;;4957078;28;88328;-85
2023/02/13 02:09:04;;;;;;;7.82;6.45;;;20.00;59.00;;;;;;4957563;28;87555;-85
2023/02/13 02:11:38;;;;;;;6.38;5.78;;;20.00;58.90;;;;;;4957522;28;87263;-85
2023/02/13 02:14:04;;;;;;;7.05;6.35;;;20.00;59.00;;;;;;4957615;28;88814;-85
2023/02/13 02:16:32;;;;;;;7.20;6.50;;;20.00;59.10;;;;;;4956453;28;88334;-83
2023/02/13 02:18:58;;;;;;;6.90;6.18;;;20.00;58.90;;;;;;4957469;28;88586;-86
2023/02/13 02:25:38;;;;;;;6.93;6.07;;;20.00;58.60;;;;;;4956906;28;87121;-86
2023/02/13 02:28:44;;;;;;;6.00;5.40;;;20.10;58.80;;;;;;4955903;28;88929;-86
2023/02/13 02:31:36;;;;;;;6.15;5.55;;;20.00;58.90;;;;;;4956521;28;87060;-87
2023/02/13 02:34:28;;;;;;;6.55;5.82;;;20.00;59.10;;;;;;4954572;28;90770;-87
2023/02/13 02:37:34;;;;;;;7.20;6.45;;;20.00;59.40;;;;;;4876510;28;88661;-87
2023/02/13 02:40:36;;;;;;;6.97;6.00;;;20.00;59.60;;;;;;4859911;28;89683;-86
2023/02/13 02:43:29;;;;;;;6.90;6.18;;;19.90;59.50;;;;;;4876863;28;87073;-87
2023/02/13 02:46:23;;;;;;;7.57;6.40;;;19.90;59.50;;;;;;4868540;28;87472;-87
2023/02/13 02:55:37;;;;;;;6.78;6.07;;;19.90;59.70;;;;;;4876991;28;87383;-86
2023/02/13 03:06:57;;;;;;;6.05;5.40;;;19.90;58.50;;;;;;4899346;28;87482;-84
2023/02/13 03:22:17;;;;;;;7.15;5.75;;;19.90;57.30;;;;;;4958493;28;87217;-84
2023/02/13 03:24:18;;;;;;;7.13;6.05;;;19.90;57.40;;;;;;4958615;28;87374;-84
2023/02/13 03:27:12;;;;;;;6.15;5.55;;;19.80;57.40;;;;;;4958330;28;89188;-84
2023/02/13 03:30:08;;;;;;;6.35;5.72;;;19.80;57.40;;;;;;4860190;29;86989;-84
2023/02/13 03:32:46;;;;;;;6.63;5.82;;;19.80;57.40;;;;;;4860200;29;87960;-84
2023/02/13 03:45:52;;;;;;;6.70;5.65;;;19.70;57.00;;;;;;4842918;29;87347;-84
2023/02/13 03:51:11;;;;;;;9.90;5.57;;;19.70;57.00;;;;;;4860505;29;87934;-84
2023/02/13 03:53:39;;;;;;;7.20;5.90;;;19.70;56.90;;;;;;4860276;29;87487;-84
2023/02/13 03:59:31;;;;;;;7.45;5.38;;;19.60;56.70;;;;;;4859990;29;91676;-85
2023/02/13 04:02:16;;;;;;;7.28;5.65;;;19.60;56.70;;;;;;4860086;29;87516;-84
2023/02/13 04:04:58;;;;;;;5.95;5.35;;;19.60;56.80;;;;;;4860283;29;87098;-84
2023/02/13 04:07:30;;;;;;;6.25;5.65;;;19.60;56.60;;;;;;4904162;28;90124;-84
2023/02/13 04:10:12;;;;;;;5.95;5.28;;;19.50;56.50;;;;;;4919696;28;88552;-84
2023/02/13 04:13:05;;;;;;;5.90;5.30;;;19.50;56.50;;;;;;4913691;28;92402;-84
2023/02/13 04:16:14;;;;;;;5.70;4.82;;;19.50;56.50;;;;;;4904238;28;88013;-84
2023/02/13 04:18:41;;;;;;;;;;;19.50;56.30;;;;;;4851316;29;87400;-84
2023/02/13 04:21:07;;;;;;;7.05;4.90;;;19.50;56.40;;;;;;4859997;29;88031;-84
2023/02/13 04:23:33;;;;;;;5.53;5.00;;;19.40;56.40;;;;;;4859477;29;87602;-84
2023/02/13 04:26:02;;;;;;;9.93;4.85;;;19.40;56.30;;;;;;4860818;29;87496;-84
2023/02/13 04:28:28;;;;;;;5.57;5.05;;;19.40;56.40;;;;;;4859857;29;87176;-84
2023/02/13 04:30:54;;;;;;;5.40;4.90;;;19.40;56.30;;;;;;4859333;29;88057;-85
2023/02/13 04:33:19;;;;;;;6.13;5.03;;;19.40;56.20;;;;;;4859940;29;88812;-84
2023/02/13 04:35:45;;;;;;;4.88;4.25;;;19.40;56.40;;;;;;4859687;29;87564;-85
2023/02/13 04:38:11;;;;;;;6.63;5.55;;;19.40;56.20;;;;;;4860564;29;86969;-85
2023/02/13 04:52:59;;;;;;;5.72;4.95;;;19.40;56.10;;;;;;4854500;28;88000;-84
2023/02/13 04:55:26;;;;;;;5.18;4.68;;;19.30;55.90;;;;;;4905567;28;88580;-84
2023/02/13 04:57:52;;;;;;;7.20;5.75;;;19.30;55.70;;;;;;4947619;28;87521;-84
2023/02/13 05:00:20;;;;;;;5.20;4.70;;;19.30;55.90;;;;;;4956389;28;87491;-84
2023/02/13 05:02:45;;;;;;;6.72;5.97;;;19.30;55.80;;;;;;4958208;28;88088;-84
2023/02/13 05:05:11;;;;;;;6.88;4.93;;;19.30;55.70;;;;;;4958345;28;87433;-84
2023/02/13 05:07:36;;;;;;;9.68;5.68;;;19.30;55.70;;;;;;4957277;28;88603;-84
2023/02/13 05:10:03;;;;;;;5.68;5.05;;;19.30;55.60;;;;;;4957360;28;88112;-84
2023/02/13 05:12:28;;;;;;;5.50;4.93;;;19.30;55.70;;;;;;4956989;28;88260;-84
2023/02/13 05:14:54;;;;;;;5.82;5.00;;;19.30;55.60;;;;;;4957075;28;88488;-84
2023/02/13 05:17:19;;;;;;;5.40;4.82;;;19.30;55.70;;;;;;4958325;28;88896;-84
2023/02/13 05:19:45;;;;;;;5.50;4.68;;;19.30;55.40;;;;;;4956177;28;87234;-84
2023/02/13 05:24:55;;;;;;;5.07;4.57;;;19.30;55.60;;;;;;4957533;28;94169;-84
2023/02/13 05:27:20;;;;;;;5.00;4.50;;;19.20;55.40;;;;;;4958048;28;87655;-84
2023/02/13 05:29:46;;;;;;;5.38;4.82;;;19.20;55.40;;;;;;4947345;28;87300;-85
2023/02/13 05:32:12;;;;;;;5.22;4.72;;;19.20;55.40;;;;;;4957506;28;87352;-85
2023/02/13 05:34:37;;;;;;;5.22;4.72;;;19.10;55.40;;;;;;4956567;28;88628;-84
2023/02/13 05:37:03;;;;;;;5.75;5.20;;;19.20;55.20;;;;;;4956857;28;89723;-84
2023/02/13 05:39:28;;;;;;;5.55;4.95;;;19.20;55.40;;;;;;4957013;28;87420;-85
2023/02/13 05:41:54;;;;;;;6.90;4.97;;;19.10;55.40;;;;;;4944369;28;87559;-84
2023/02/13 05:44:20;;;;;;;5.07;4.30;;;19.10;55.20;;;;;;4950896;28;88141;-84
2023/02/13 05:46:45;;;;;;;5.30;4.78;;;19.10;55.30;;;;;;4957255;28;87867;-84
2023/02/13 05:52:51;;;;;;;5.13;4.55;;;19.10;55.10;;;;;;4957583;28;86694;-84
2023/02/13 05:55:17;;;;;;;5.10;4.57;;;19.10;55.00;;;;;;4948099;28;88777;-84
2023/02/13 05:57:43;;;;;;;5.05;4.40;;;19.10;55.00;;;;;;4938305;28;90148;-84
2023/02/13 06:00:09;;;;;;;7.20;4.70;;;19.10;54.90;;;;;;4956636;28;88436;-85
2023/02/13 06:02:34;;;;;;;5.40;4.60;;;19.00;55.10;;;;;;4956234;28;87551;-84
2023/02/13 06:15:24;;;;;;;5.28;4.78;;;19.00;54.90;;;;;;4957040;28;87604;-84
2023/02/13 06:17:50;;;;;;;5.10;4.53;;;19.00;54.90;;;;;;4956850;28;88567;-84
2023/02/13 06:20:16;;;;;;;5.05;4.55;;;19.00;54.80;;;;;;4957775;28;88149;-84
2023/02/13 06:22:41;;;;;;;4.88;4.18;;;19.00;54.90;;;;;;4956887;28;87036;-84
2023/02/13 06:25:07;;;;;;;5.68;4.70;;;19.00;54.60;;;;;;4935773;28;89554;-84
2023/02/13 06:27:33;;;;;;;5.55;4.75;;;19.00;54.60;;;;;;4936243;28;89299;-84
2023/02/13 06:29:58;;;;;;;5.57;4.50;;;19.00;54.60;;;;;;4940015;28;87824;-84
2023/02/13 06:32:24;;;;;;;5.10;4.60;;;19.00;54.50;;;;;;4950492;28;88244;-84
2023/02/13 06:34:57;;;;;;;4.85;4.35;;;19.00;54.60;;;;;;4959926;28;87505;-84
2023/02/13 06:37:22;;;;;;;6.10;4.25;;;18.90;54.50;;;;;;4959497;28;88204;-84
2023/02/13 06:39:48;;;;;;;5.18;4.68;;;18.90;54.40;;;;;;4955106;28;87555;-84
2023/02/13 06:42:13;;;;;;;4.82;4.22;;;18.90;54.50;;;;;;4950525;28;87331;-84
2023/02/13 06:44:39;;;;;;;5.72;4.68;;;18.90;54.60;;;;;;4941857;28;86859;-84
2023/02/13 06:50:36;;;;;;;7.18;4.40;;;18.90;54.60;;;;;;4958717;28;91842;-84
2023/02/13 06:53:01;;;;;;;6.05;4.80;;;18.90;54.30;;;;;;4959721;28;88404;-84
2023/02/13 06:55:27;;;;;;;5.25;4.60;;;18.90;54.30;;;;;;4959517;28;87150;-84
2023/02/13 06:57:53;;;;;;;5.15;4.63;;;18.90;54.30;;;;;;4959776;28;88096;-84
2023/02/13 07:00:19;;;;;;;4.78;4.28;;;18.90;54.20;;;;;;4959188;28;87803;-84
2023/02/13 07:03:04;;;;;;;5.15;4.32;;;18.90;54.10;;;;;;4959291;28;86898;-84
2023/02/13 07:05:30;;;;;;;4.32;3.80;;;18.90;54.00;;;;;;4959145;28;89453;-84
2023/02/13 07:07:56;;;;;;;4.55;4.05;;;18.90;54.00;;;;;;4959758;28;87764;-84
2023/02/13 07:10:22;;;;;;;7.65;4.85;;;18.90;54.10;;;;;;4950250;28;91391;-84
2023/02/13 07:12:49;;;;;;;5.35;4.22;;;18.80;54.10;;;;;;4959669;28;87364;-84
2023/02/13 07:15:19;;;;;;;4.95;4.45;;;18.80;54.10;;;;;;4958892;28;87212;-84
2023/02/13 07:17:45;;;;;;;5.38;4.32;;;18.80;54.50;;;;;;4958927;28;89454;-85
2023/02/13 07:20:11;;;;;;;4.97;4.32;;;18.80;54.20;;;;;;4959983;28;89394;-84
2023/02/13 07:22:37;;;;;;;5.05;4.25;;;18.80;53.90;;;;;;4959373;28;87072;-84
2023/02/13 07:25:02;;;;;;;4.80;4.30;;;18.80;53.80;;;;;;4959183;28;87074;-84
2023/02/13 07:31:08;;;;;;;5.45;4.28;;;18.80;53.80;;;;;;4958997;28;94205;-85
2023/02/13 07:33:34;;;;;;;4.63;4.22;;;18.80;53.70;;;;;;4959045;28;87291;-84
2023/02/13 07:36:02;;;;;;;4.70;4.20;;;18.80;53.80;;;;;;4950450;28;88424;-85
2023/02/13 07:38:29;;;;;;;6.18;4.63;;;18.90;53.50;;;;;;4958716;28;87403;-83
2023/02/13 07:41:01;;;;;;;4.55;4.15;;;18.90;53.40;;;;;;4958987;28;88294;-87
2023/02/13 07:50:11;;;;;;;6.82;4.35;;;19.10;52.80;;;;;;4957988;28;92044;-87
2023/02/13 07:52:37;;;;;;;10.05;5.07;;;19.20;53.00;;;;;;4958990;28;88253;-86
2023/02/13 07:55:04;;;;;;;10.38;4.75;;;19.20;53.10;;;;;;4958558;28;87441;-87
2023/02/13 07:57:30;;;;;;;11.50;4.65;;;19.40;53.60;;;;;;4956668;28;91088;-88
2023/02/13 07:59:57;;;;;;;6.80;4.40;;;19.60;53.40;;;;;;4958560;28;88008;-87
2023/02/13 08:02:22;;;;;;;11.13;4.30;;;19.70;53.60;;;;;;4960637;28;88281;-88
2023/02/13 08:04:48;;;;;;;7.55;4.30;;;19.90;53.60;;;;;;4959483;28;87429;-88
2023/02/13 08:07:15;;;;;;;12.45;4.45;;;20.00;53.60;;;;;;4958851;28;87041;-88
2023/02/13 08:12:26;;;;;;;6.57;3.80;;;20.20;53.70;;;;;;4958344;28;87891;-87
2023/02/13 08:14:52;;;;;;;5.95;4.18;;;20.10;53.60;;;;;;4940358;28;87014;-88
2023/02/13 08:17:18;;;;;;;6.93;4.00;;;20.10;53.70;;;;;;4959307;28;87054;-88
2023/02/13 08:19:43;;;;;;;8.20;4.25;;;20.10;53.60;;;;;;4958569;28;87880;-88
2023/02/13 08:22:28;;;;;;;8.93;4.22;;;20.20;53.60;;;;;;4937083;28;90998;-88
2023/02/13 08:24:54;;;;;;;5.32;3.72;;;20.10;53.70;;;;;;4945311;28;87226;-88
2023/02/13 08:27:19;;;;;;;6.30;4.20;;;20.10;53.80;;;;;;4944753;28;88184;-87
2023/02/13 08:29:45;;;;;;;8.70;4.28;;;20.10;54.00;;;;;;4941581;28;88305;-86
2023/02/13 08:32:11;;;;;;;10.88;4.10;;;20.20;53.90;;;;;;4927521;28;89159;-86
2023/02/13 08:34:36;;;;;;;11.13;3.97;;;20.10;53.90;;;;;;4935835;28;88578;-86
2023/02/13 08:37:02;;;;;;;5.80;3.85;;;20.10;53.90;;;;;;4951311;28;87552;-86
2023/02/13 08:39:28;;;;;;;8.10;4.05;;;20.10;54.10;;;;;;4932067;28;91595;-86
2023/02/13 08:42:11;;;;;;;8.32;4.13;;;20.00;54.20;;;;;;4949670;28;88282;-87
2023/02/13 08:44:39;;;;;;;8.48;4.10;;;20.00;54.60;;;;;;4949398;28;87209;-86
2023/02/13 08:47:06;;;;;;;6.00;4.82;;;20.10;54.40;;;;;;4958559;28;89607;-86
2023/02/13 08:49:32;;;;;;;11.10;5.47;;;20.10;53.40;;;;;;4957031;28;88622;-87
2023/02/13 08:51:58;;;;;;;8.45;3.90;;;20.10;53.20;;;;;;4957605;28;88420;-86
2023/02/13 08:54:24;;;;;;;5.75;4.00;;;20.20;53.90;;;;;;4952824;28;87271;-87
2023/02/13 08:56:49;;;;;;;6.50;4.50;;;20.20;54.00;;;;;;4948104;28;87725;-87
2023/02/13 09:06:00;;;;;;;6.22;4.60;;;20.10;54.80;;;;;;4948275;28;87334;-88
2023/02/13 09:08:26;;;;;;;6.80;4.22;;;20.10;55.30;;;;;;4950131;28;87445;-86
2023/02/13 09:11:00;;;;;;;10.30;5.60;;;20.10;55.40;;;;;;4958520;28;87721;-87
2023/02/13 09:13:29;;;;;;;9.10;6.18;;;20.10;57.20;;;;;;4950592;28;87754;-86
2023/02/13 09:26:02;;;;;;;7.97;4.90;;;20.10;57.40;;;;;;4956305;28;91413;-86
2023/02/13 09:28:29;;;;;;;11.48;6.82;;;20.10;57.80;;;;;;4948175;28;88282;-86
2023/02/13 09:30:55;;;;;;;10.43;6.38;;;20.10;58.00;;;;;;4934786;28;90560;-86
2023/02/13 09:33:21;;;;;;;11.07;6.55;;;20.10;58.10;;;;;;4949351;28;89123;-86
2023/02/13 09:52:53;;;;;;;14.60;8.10;;;20.10;60.40;;;;;;4956963;28;87406;-85
2023/02/13 09:55:38;;;;;;;17.27;9.13;;;20.20;62.10;;;;;;4956372;28;87318;-85
2023/02/13 09:58:24;;;;;;;16.65;9.38;;;20.10;61.90;;;;;;4956615;28;88228;-85
2023/02/13 10:00:55;;;;;;;17.63;9.10;;;20.20;62.10;;;;;;4956853;28;88971;-84
2023/02/13 10:03:45;;;;;;;15.93;9.50;;;20.30;61.80;;;;;;4957065;28;86827;-85
2023/02/13 10:06:35;;;;;;;20.45;9.07;;;20.30;61.60;;;;;;4939975;28;91823;-84
2023/02/13 10:09:24;;;;;;;17.88;9.10;;;20.30;62.10;;;;;;4950616;28;90873;-85
2023/02/13 10:12:11;;;;;;;19.43;8.90;;;20.20;62.10;;;;;;4880660;28;88395;-85
2023/02/13 10:14:51;;;;;;;16.48;8.73;;;20.20;62.10;;;;;;4863575;28;87550;-84
2023/02/13 10:24:03;;;;;;;15.05;9.52;;;20.20;62.30;;;;;;4897867;28;87700;-85
2023/02/13 10:26:44;;;;;;;14.13;8.35;;;20.20;62.30;;;;;;4899035;28;88623;-85
2023/02/13 10:32:33;;;;;;;10.85;7.72;;;20.20;62.60;;;;;;4899873;28;91646;-85
2023/02/13 10:35:03;;;;;;;15.15;8.85;;;20.20;62.60;;;;;;4899259;28;92682;-86
2023/02/13 10:37:28;;;;;;;12.82;7.88;;;20.10;62.60;;;;;;4898998;28;87521;-85
2023/02/13 10:39:54;;;;;;;16.67;9.27;;;20.20;62.60;;;;;;4898733;28;89310;-85
2023/02/13 10:48:49;;;;;;;14.00;7.63;;;20.20;62.40;;;;;;4925140;28;87171;-85
2023/02/13 10:51:34;;;;;;;12.83;7.63;;;20.20;62.00;;;;;;4959116;28;87444;-86
2023/02/13 10:54:13;;;;;;;13.05;7.43;;;20.20;62.00;;;;;;4937306;28;91859;-85
2023/02/13 10:57:03;;;;;;;11.32;7.65;;;20.20;62.10;;;;;;4945831;28;91195;-86
2023/02/13 10:59:32;;;;;;;12.20;7.88;;;20.20;62.00;;;;;;4950647;28;87562;-84
2023/02/13 11:02:24;;;;;;;12.83;7.73;;;20.30;61.50;;;;;;4941174;28;87686;-87
2023/02/13 11:05:00;;;;;;;15.60;8.20;;;20.40;58.90;;;;;;4940050;28;88474;-87
2023/02/13 11:08:12;;;;;;;11.70;8.18;;;20.30;59.40;;;;;;4939728;28;88931;-88
2023/02/13 11:10:39;;;;;;;12.75;7.53;;;20.30;60.60;;;;;;4939979;28;87003;-86
2023/02/13 11:13:23;;;;;;;12.88;7.20;;;20.30;60.60;;;;;;4939768;28;87046;-87
2023/02/13 11:16:06;;;;;;;12.07;7.18;;;20.30;60.80;;;;;;4939483;28;88824;-87
2023/02/13 11:25:19;;;;;;;12.52;7.35;;;20.30;60.40;;;;;;4939114;28;87481;-87
2023/02/13 11:27:47;;;;;;;14.90;7.22;;;20.30;60.80;;;;;;4938257;28;91820;-86
2023/02/13 11:30:22;;;;;;;12.13;8.00;;;20.30;60.80;;;;;;4938988;28;88487;-86
2023/02/13 11:33:17;;;;;;;10.50;6.80;;;20.30;61.00;;;;;;4939418;28;87195;-86
2023/02/13 11:35:46;;;;;;;19.13;7.60;;;20.40;61.10;;;;;;4879097;28;87499;-86
2023/02/13 11:38:19;;;;;;;;;;;20.40;60.80;;;;;;4881090;28;87430;-86
2023/02/13 11:40:52;;;;;;;13.35;7.97;;;20.40;60.60;;;;;;4880240;28;87913;-86
2023/02/13 11:43:36;;;;;;;13.32;6.85;;;20.50;60.10;;;;;;4866020;28;87337;-86
2023/02/13 11:46:02;;;;;;;11.18;6.85;;;20.50;60.70;;;;;;4879018;28;87804;-87
2023/02/13 11:48:27;;;;;;;12.73;7.00;;;20.40;60.90;;;;;;4853657;28;92291;-85
2023/02/13 11:50:57;;;;;;;10.32;6.60;;;20.30;61.10;;;;;;4878826;28;89252;-86
2023/02/13 11:53:24;;;;;;;;;;;20.30;60.80;;;;;;4879859;28;87422;-87
2023/02/13 11:56:07;;;;;;;13.00;7.07;;;20.30;61.20;;;;;;4880384;28;87417;-86
2023/02/13 11:58:33;;;;;;;15.05;7.30;;;20.20;61.30;;;;;;4879009;28;88638;-86
2023/02/13 12:01:08;;;;;;;12.52;6.88;;;20.20;61.40;;;;;;4879197;28;88308;-87
2023/02/13 12:17:20;;;;;;;13.93;6.35;;;20.20;61.40;;;;;;4939124;28;88322;-85
2023/02/13 12:19:53;;;;;;;8.77;5.70;;;20.30;60.60;;;;;;4938603;28;87440;-85
2023/02/13 12:22:36;;;;;;;11.23;6.75;;;20.30;60.70;;;;;;4938513;28;87633;-87
2023/02/13 12:25:03;;;;;;;8.88;5.88;;;20.40;61.10;;;;;;4939005;28;88194;-87
2023/02/13 12:27:29;;;;;;;11.60;6.95;;;20.40;61.40;;;;;;4939104;28;86963;-86
2023/02/13 12:30:21;;;;;;;9.40;5.80;;;20.40;60.20;;;;;;4938059;28;86984;-86
2023/02/13 12:32:56;;;;;;;11.43;6.93;;;20.40;60.50;;;;;;4936806;28;91817;-85
2023/02/13 12:39:02;;;;;;;10.32;6.07;;;20.30;59.80;;;;;;4939265;28;87581;-86
2023/02/13 12:41:58;;;;;;;9.07;6.22;;;20.30;60.30;;;;;;4939578;28;86799;-85
2023/02/13 12:44:33;;;;;;;11.90;6.93;;;20.30;59.90;;;;;;4938717;28;88849;-85
2023/02/13 12:47:05;;;;;;;10.13;6.00;;;20.30;59.70;;;;;;4938312;28;93696;-86
2023/02/13 12:49:39;;;;;;;8.38;5.65;;;20.30;59.70;;;;;;4938529;28;87047;-85
2023/02/13 12:52:48;;;;;;;8.73;5.82;;;20.20;59.60;;;;;;4938248;28;90785;-86
2023/02/13 12:56:02;;;;;;;8.40;5.63;;;20.10;59.70;;;;;;4956146;28;88070;-85
2023/02/13 13:02:19;;;;;;;9.60;5.93;;;20.20;58.00;;;;;;4957208;28;87183;-85
2023/02/13 13:05:04;;;;;;;7.72;5.88;;;20.20;58.50;;;;;;4958030;28;87508;-84
2023/02/13 13:07:52;;;;;;;5.93;5.15;;;20.30;58.80;;;;;;4957377;28;88274;-85
2023/02/13 13:10:53;;;;;;;6.78;4.63;;;20.30;58.70;;;;;;4957209;28;87391;-85
2023/02/13 13:20:44;;;;;;;9.63;5.57;;;20.30;58.80;;;;;;4858771;29;91803;-85
2023/02/13 13:23:34;;;;;;;8.65;4.80;;;20.30;58.60;;;;;;4821061;29;92550;-85
2023/02/13 13:26:23;;;;;;;7.32;4.93;;;20.20;58.00;;;;;;4821548;29;87042;-85
2023/02/13 13:28:52;;;;;;;10.27;5.53;;;20.20;58.30;;;;;;4821132;29;87257;-86
2023/02/13 13:31:19;;;;;;;6.90;4.93;;;20.20;58.50;;;;;;4821416;29;89434;-85
2023/02/13 13:33:46;;;;;;;9.50;5.25;;;20.20;58.50;;;;;;4821471;29;88567;-86
2023/02/13 13:36:35;;;;;;;7.55;5.18;;;20.20;58.50;;;;;;4821268;29;87071;-86
2023/02/13 13:39:27;;;;;;;6.13;4.72;;;20.10;58.80;;;;;;4821661;29;87411;-85
2023/02/13 13:42:19;;;;;;;8.75;5.00;;;20.20;58.60;;;;;;4819670;29;89625;-87
2023/02/13 13:44:44;;;;;;;9.27;5.35;;;20.20;58.20;;;;;;4820698;29;88007;-87
2023/02/13 13:47:23;;;;;;;7.80;4.75;;;20.20;58.20;;;;;;4822041;29;87542;-87
2023/02/13 13:49:57;;;;;;;14.80;5.97;;;20.20;58.20;;;;;;4831261;29;87531;-87
2023/02/13 13:53:09;;;;;;;7.45;5.50;;;20.20;57.90;;;;;;4849445;29;88896;-86
2023/02/13 13:58:59;;;;;;;7.50;4.68;;;20.40;57.60;;;;;;4831289;29;86908;-86
2023/02/13 14:01:31;;;;;;;5.73;4.20;;;20.50;57.40;;;;;;4886030;28;86977;-85
2023/02/13 14:04:02;;;;;;;7.13;4.65;;;20.60;57.10;;;;;;4888312;28;90596;-85
2023/02/13 14:06:46;;;;;;;7.05;4.65;;;20.60;56.80;;;;;;4886724;28;88359;-86
2023/02/13 14:09:24;;;;;;;5.85;4.00;;;20.70;57.00;;;;;;4886691;28;88450;-86
2023/02/13 14:12:24;;;;;;;5.85;4.20;;;20.70;56.80;;;;;;4887028;28;87133;-86
2023/02/13 14:14:53;;;;;;;5.22;3.78;;;20.80;56.80;;;;;;4886310;28;89194;-86
2023/02/13 14:17:37;;;;;;;;;;;20.90;56.80;;;;;;4887014;28;88275;-87
2023/02/13 14:20:36;;;;;;;7.50;4.40;;;21.00;56.70;;;;;;4889498;28;86951;-86
2023/02/13 14:23:44;;;;;;;7.18;4.25;;;21.10;57.20;;;;;;4886065;28;91076;-86
2023/02/13 14:26:15;;;;;;;6.77;3.93;;;21.20;56.70;;;;;;4888755;28;93079;-86
2023/02/13 14:28:48;;;;;;;8.45;4.10;;;21.20;56.50;;;;;;4887338;28;86964;-86
2023/02/13 14:31:22;;;;;;;11.55;4.75;;;21.20;56.20;;;;;;4894550;28;87512;-86
2023/02/13 14:34:15;;;;;;;47.75;12.30;;;21.20;56.40;;;;;;4956114;28;87395;-85
2023/02/13 14:36:44;;;;;;;33.80;10.63;;;21.20;54.90;;;;;;4951818;28;90878;-86
2023/02/13 14:39:15;;;;;;;34.17;11.45;;;21.20;54.40;;;;;;4955514;28;89362;-86
2023/02/13 14:41:50;;;;;;;34.63;9.88;;;21.10;53.70;;;;;;4956013;28;88146;-87
2023/02/13 14:44:43;;;;;;;24.73;10.15;;;21.00;53.70;;;;;;4956888;28;87832;-86
2023/02/13 14:47:28;;;;;;;27.00;9.07;;;21.00;53.70;;;;;;4955322;28;92395;-87
2023/02/13 14:49:55;;;;;;;22.45;7.85;;;20.90;53.70;;;;;;4955850;28;92700;-87
2023/02/13 14:52:27;;;;;;;25.55;9.15;;;20.80;52.20;;;;;;4958105;28;87420;-86
2023/02/13 14:54:59;;;;;;;26.48;9.10;;;20.80;51.10;;;;;;4960612;28;87113;-86
2023/02/13 14:57:38;;;;;;;36.10;13.27;;;20.80;52.40;;;;;;4959662;28;89120;-85
2023/02/13 15:00:08;;;;;;;35.60;14.57;;;20.90;53.40;;;;;;4959477;28;88219;-86
2023/02/13 15:02:46;;;;;;;40.35;14.88;;;20.80;53.20;;;;;;4959050;28;88649;-86
2023/02/13 15:05:19;;;;;;;36.75;14.48;;;20.80;52.30;;;;;;4956762;28;90473;-87
2023/02/13 15:08:12;;;;;;;40.95;14.82;;;20.80;52.70;;;;;;4951916;28;90317;-87
2023/02/13 15:10:43;;;;;;;32.50;14.98;;;20.90;53.00;;;;;;4948951;28;90379;-87
2023/02/13 15:13:33;;;;;;;34.15;15.00;;;21.00;52.40;;;;;;4940852;28;87313;-85
2023/02/13 15:16:02;;;;;;;36.50;13.98;;;20.90;53.00;;;;;;4959081;28;87410;-86
2023/02/13 15:18:40;;;;;;;38.53;14.37;;;20.90;54.00;;;;;;4958358;28;89174;-86
2023/02/13 15:21:10;;;;;;;32.45;12.15;;;21.00;54.60;;;;;;4938527;28;92089;-86
2023/02/13 15:23:40;;;;;;;29.20;12.88;;;21.10;54.50;;;;;;4922729;28;87435;-86
2023/02/13 15:26:06;;;;;;;35.10;11.52;;;21.20;54.50;;;;;;4950434;28;87487;-86
2023/02/13 15:28:34;;;;;;;31.83;11.65;;;21.30;54.50;;;;;;4957108;28;89567;-86
2023/02/13 15:31:02;;;;;;;28.55;11.43;;;21.40;54.30;;;;;;4958131;28;89168;-85
2023/02/13 15:34:11;;;;;;;29.35;11.25;;;21.50;54.20;;;;;;4959212;28;87328;-86
2023/02/13 15:36:40;;;;;;;30.17;10.60;;;21.70;54.00;;;;;;4933865;28;90975;-86
2023/02/13 15:39:07;;;;;;;24.40;10.23;;;21.70;54.00;;;;;;4959322;28;88390;-86
2023/02/13 15:41:37;;;;;;;26.02;10.57;;;21.70;53.90;;;;;;4948113;28;87534;-87
2023/02/13 15:44:03;;;;;;;31.63;10.75;;;21.80;53.70;;;;;;4957708;28;87367;-86
2023/02/13 15:49:58;;;;;;;21.92;8.80;;;21.80;53.30;;;;;;4958376;28;91715;-85
2023/02/13 15:52:31;;;;;;;25.92;9.57;;;21.70;52.60;;;;;;4958042;28;87171;-84
2023/02/13 15:54:57;;;;;;;19.70;8.75;;;21.70;53.00;;;;;;4951897;28;88569;-85
2023/02/13 15:57:25;;;;;;;25.58;10.07;;;21.70;53.40;;;;;;4934447;28;90622;-84
2023/02/13 15:59:54;;;;;;;22.08;8.48;;;21.70;52.80;;;;;;4950332;28;88902;-84
2023/02/13 16:02:24;;;;;;;20.70;8.65;;;21.60;52.30;;;;;;4923158;28;89512;-84
2023/02/13 16:04:53;;;;;;;21.75;8.30;;;21.40;53.30;;;;;;4924486;28;87938;-85
2023/02/13 16:07:19;;;;;;;22.25;8.65;;;21.40;53.60;;;;;;4949799;28;87561;-85
2023/02/13 16:09:46;;;;;;;18.65;8.50;;;21.40;53.80;;;;;;4951649;28;88506;-85
2023/02/13 16:12:27;;;;;;;23.15;8.90;;;21.40;54.20;;;;;;4947369;28;88137;-85
2023/02/13 16:15:01;;;;;;;23.92;8.90;;;21.30;54.30;;;;;;4949544;28;86916;-85
2023/02/13 16:17:31;;;;;;;28.33;9.75;;;21.30;55.30;;;;;;4957987;28;87152;-84
2023/02/13 16:20:14;;;;;;;25.83;8.70;;;21.20;56.20;;;;;;4948250;28;90227;-84
2023/02/13 16:22:46;;;;;;;19.30;8.55;;;21.20;56.30;;;;;;4945775;28;92218;-85
2023/02/13 16:25:12;;;;;;;21.63;8.32;;;21.10;55.30;;;;;;4953457;28;87055;-84
2023/02/13 16:28:01;;;;;;;18.40;7.32;;;21.10;54.30;;;;;;4958408;28;87309;-89
2023/02/13 16:30:43;;;;;;;17.92;7.60;;;21.20;55.20;;;;;;4953653;28;88715;-89
2023/02/13 16:33:14;;;;;;;22.88;7.53;;;21.20;55.30;;;;;;4945565;28;87617;-88
2023/02/13 16:35:50;;;;;;;17.25;6.97;;;21.30;55.20;;;;;;4948448;28;87271;-89
2023/02/13 16:42:16;;;;;;;19.42;7.78;;;21.50;55.30;;;;;;4957925;28;92242;-89
2023/02/13 16:44:42;;;;;;;16.50;6.57;;;21.50;55.20;;;;;;4957120;28;88371;-88
2023/02/13 16:47:21;;;;;;;19.98;7.53;;;21.60;55.40;;;;;;4958529;28;88346;-88